map of SHE home
SHE - Airport
Location
City:  Shenyang, Liaoning, China
Name:Taoxian International Airport
ICAO:ZYTX
IATA:SHE

Details
Type:Airport (Aerodrome, Airfield)
Use:Public/Civil, International (customs port of entry)
Latitude:4139'N (41.642)
Longitude:12329'E (123.485)
Elevation:200 ft (61 m)
Variation:9.14W (WMM2015 magnetic declination)
-0.06 annual change
Runways:1
Longest:10499 × 148 ft (3200 × 45 m), paved

Time
Time Zone:UTC+8
Local Time:

Weather
METAR:ZYTX 220330Z 21002MPS 180V250 CAVOK 04/M14 Q1016 NOSIG

Related Locations
Nearby:
Farthest:MJR: 12185 mi / 19609 km
Miramar [Miramar Airport], B, AR

Find:

   beyond  
but within

Other Information
Maps:
NOTAMs:
Links:
Sources:

  
  • flag of China
  

Sectional Chart

Flight Planning
at skyvector.com

Satellite Image

Google Maps Satellite view

 

Copyright © 2004-2019 Karl L. Swartz. All rights reserved.
The Great Circle Mapper name and logo are trademarks of the Great Circle Mapper.
All other trademarks mentioned herein belong to their respective owners.
Please see credits for attibutions and further copyright information.

  Follow gcmap on Facebook Follow gcmap on Twitter Follow gcmap on Google+ GCmap on LinkedIn

hCard Microformat

Geo Microformat